Terminal Aerodrome Forecast
Issued by NWS Sterling, VA

Home | Current Version | Previous Version | Text Only | Print | Product List | Glossary On
Versions: 1 2 3 4 5 6 7 8 9 10 11 12 13 14 15 16 17 18 19 20 21 22 23 24 25 26
000
FTUS41 KLWX 242300
TAFDCA
TAF
KDCA 242340Z 2500/2524 19010KT 4SM BR OVC003 WS020/22045KT
     FM250400 23012KT 4SM -SHRA BR BKN009 OVC015 WS020/26040KT
     FM250900 30014KT P6SM SCT080 BKN120
     FM251400 30014G25KT P6SM SCT040
     FM252100 29008KT P6SM FEW250=

USA.gov is the U.S. government's official web portal to all federal, state and local government web resources and services.